KPIA

General Downing - Peoria International Airport

Peoria, Illinois, USA
METAR KPIA 220654Z 05007KT 10SM CLR 13/08 A3027 RMK AO2 SLP250 T01330083
Observed Flight Rules
Sep-22 @ 06:54 UTC (27 minutes ago) Visual Flight Rules
Wind Visibility Clouds
50° at 7 knots 10 miles
Temperatures Readings
Current 13°C / 55°F
Dewpoint 8°C / 46°F
Humidity 72%
Altimeter 30.27" Hg
Pressure 1025 hPa
Elevation 205
METAR KPIA 220654Z 05007KT 10SM CLR 13/08 A3027 RMK AO2 SLP250 T01330083
Observed Flight Rules
Sep-22 @ 06:54 UTC
(27 minutes ago)
VFR
Wind Visibility
50° at 7 knots 10 miles
Clouds
Temperature Dewpoint
13°C / 55°F 8°C / 46°F
Humidity Altimeter Pressure
72% 30.27" Hg 1025 hPa